Terminal Aerodrome Forecast
Issued by NWS

Home | Current Version | Previous Version | Text Only | Print | Product List | Glossary On
Versions: 1 2 3 4 5 6 7 8 9 10 11 12 13 14 15 16 17 18
000
FTAK31 PAJN 220523
TAFAWG
TAF
PAWG 220523Z 2206/2306 VRB06KT P6SM OVC120
     FM220700 07006KT P6SM SCT070 OVC120
     FM221200 08010G15KT 2SM -SN BR OVC025
     FM221900 08010G15KT 4SM -SNRA BR OVC025
     FM222000 07010KT 6SM -RA BR OVC025
      AMD LTD TO CLD VIS AND WIND 2206/2215=

USA.gov is the U.S. government's official web portal to all federal, state and local government web resources and services.